ROB957 MMQT-MMMX
Flight info
| Callsign | ROB957 |
|---|---|
| Flight time | 0h 52m |
| Altitude | 11500 |
| Route | PITUS DCT DARAN |
| Aircraft | C172/L-SFG/C |
Departure
| Time | 2026-05-03 21:25 |
|---|---|
| Airport | Querétaro Intercontinental Airport (MMQT) |
Arrival
| Time | 2026-05-03 22:17 |
|---|---|
| Airport | Mexico City Benito Juárez International Airport (MMMX) |
| Time | Latitude | Longitude | Altitude | Speed | Heading |
|---|---|---|---|---|---|
| 2026-05-03 21:01 | 20.62121 | -100.18608 | 6266 ft | 0 kts | 62° |
| 2026-05-03 21:18 | 20.62125 | -100.18596 | 6267 ft | 7 kts | 72° |
| 2026-05-03 21:18 | 20.62095 | -100.18521 | 6268 ft | 15 kts | 175° |
| 2026-05-03 21:19 | 20.62047 | -100.18448 | 6269 ft | 12 kts | 101° |
| 2026-05-03 21:19 | 20.62031 | -100.18377 | 6271 ft | 7 kts | 122° |
| 2026-05-03 21:19 | 20.61992 | -100.18351 | 6271 ft | 9 kts | 173° |
| 2026-05-03 21:19 | 20.61913 | -100.18359 | 6271 ft | 14 kts | 178° |
| 2026-05-03 21:20 | 20.61851 | -100.18287 | 6273 ft | 17 kts | 98° |
| 2026-05-03 21:20 | 20.61832 | -100.18146 | 6275 ft | 21 kts | 98° |
| 2026-05-03 21:20 | 20.61799 | -100.17981 | 6278 ft | 25 kts | 103° |
| 2026-05-03 21:20 | 20.61758 | -100.17791 | 6281 ft | 28 kts | 102° |
| 2026-05-03 21:21 | 20.61722 | -100.17579 | 6285 ft | 30 kts | 100° |
| 2026-05-03 21:21 | 20.61681 | -100.17359 | 6289 ft | 31 kts | 103° |
| 2026-05-03 21:21 | 20.61639 | -100.17127 | 6293 ft | 33 kts | 98° |
| 2026-05-03 21:21 | 20.61595 | -100.16910 | 6297 ft | 14 kts | 127° |
| 2026-05-03 21:22 | 20.61505 | -100.16911 | 6297 ft | 15 kts | 192° |
| 2026-05-03 21:22 | 20.61440 | -100.16949 | 6297 ft | 10 kts | 281° |
| 2026-05-03 21:22 | 20.61442 | -100.16958 | 6297 ft | 0 kts | 282° |
| 2026-05-03 21:23 | 20.61452 | -100.17016 | 6296 ft | 26 kts | 281° |
| 2026-05-03 21:24 | 20.61513 | -100.17352 | 6291 ft | 65 kts | 280° |
| 2026-05-03 21:24 | 20.61621 | -100.17926 | 6291 ft | 89 kts | 282° |
| 2026-05-03 21:24 | 20.61697 | -100.18562 | 6479 ft | 87 kts | 284° |
| 2026-05-03 21:24 | 20.61827 | -100.19194 | 6672 ft | 87 kts | 284° |
| 2026-05-03 21:25 | 20.61955 | -100.19770 | 7041 ft | 72 kts | 285° |
| 2026-05-03 21:25 | 20.62030 | -100.20282 | 7206 ft | 72 kts | 281° |
| 2026-05-03 21:25 | 20.62102 | -100.20863 | 7354 ft | 84 kts | 276° |
| 2026-05-03 21:25 | 20.62112 | -100.21486 | 7498 ft | 85 kts | 257° |
| 2026-05-03 21:26 | 20.61816 | -100.22041 | 7598 ft | 83 kts | 241° |
| 2026-05-03 21:26 | 20.61453 | -100.22485 | 7700 ft | 85 kts | 207° |
| 2026-05-03 21:26 | 20.60854 | -100.22396 | 7797 ft | 88 kts | 143° |
| 2026-05-03 21:26 | 20.60558 | -100.21772 | 7861 ft | 101 kts | 106° |
| 2026-05-03 21:27 | 20.60377 | -100.21052 | 7990 ft | 103 kts | 102° |
| 2026-05-03 21:27 | 20.60370 | -100.20220 | 7948 ft | 120 kts | 90° |
| 2026-05-03 21:27 | 20.60241 | -100.19322 | 7920 ft | 128 kts | 103° |
| 2026-05-03 21:27 | 20.59810 | -100.18525 | 7910 ft | 130 kts | 141° |
| 2026-05-03 21:28 | 20.59197 | -100.17881 | 8035 ft | 121 kts | 136° |
| 2026-05-03 21:28 | 20.58670 | -100.17233 | 8192 ft | 103 kts | 139° |
| 2026-05-03 21:28 | 20.58296 | -100.16660 | 8358 ft | 97 kts | 140° |
| 2026-05-03 21:28 | 20.57882 | -100.16077 | 8405 ft | 97 kts | 136° |
| 2026-05-03 21:29 | 20.57738 | -100.15418 | 8498 ft | 93 kts | 99° |
| 2026-05-03 21:29 | 20.57327 | -100.14915 | 8596 ft | 90 kts | 131° |
| 2026-05-03 21:29 | 20.56889 | -100.14439 | 8719 ft | 90 kts | 138° |
| 2026-05-03 21:29 | 20.56513 | -100.13929 | 8806 ft | 89 kts | 93° |
| 2026-05-03 21:30 | 20.56491 | -100.13280 | 8922 ft | 87 kts | 96° |
| 2026-05-03 21:30 | 20.56457 | -100.12645 | 9032 ft | 85 kts | 95° |
| 2026-05-03 21:30 | 20.56129 | -100.12176 | 9115 ft | 81 kts | 174° |
| 2026-05-03 21:30 | 20.55574 | -100.12114 | 9210 ft | 83 kts | 159° |
| 2026-05-03 21:31 | 20.55121 | -100.11779 | 9248 ft | 88 kts | 117° |
| 2026-05-03 21:31 | 20.54599 | -100.11443 | 9132 ft | 103 kts | 164° |
| 2026-05-03 21:31 | 20.53907 | -100.11040 | 9074 ft | 121 kts | 147° |
| 2026-05-03 21:31 | 20.53253 | -100.10357 | 8830 ft | 138 kts | 122° |
| 2026-05-03 21:32 | 20.52690 | -100.09606 | 8950 ft | 129 kts | 141° |
| 2026-05-03 21:32 | 20.52036 | -100.08973 | 9045 ft | 125 kts | 138° |
| 2026-05-03 21:32 | 20.51413 | -100.08353 | 9145 ft | 121 kts | 139° |
| 2026-05-03 21:32 | 20.50805 | -100.07731 | 9252 ft | 121 kts | 138° |
| 2026-05-03 21:33 | 20.50206 | -100.07113 | 9355 ft | 119 kts | 139° |
| 2026-05-03 21:33 | 20.49633 | -100.06521 | 9546 ft | 109 kts | 138° |
| 2026-05-03 21:33 | 20.49100 | -100.05974 | 9696 ft | 104 kts | 139° |
| 2026-05-03 21:33 | 20.48593 | -100.05454 | 9836 ft | 99 kts | 139° |
| 2026-05-03 21:34 | 20.48111 | -100.04955 | 9979 ft | 94 kts | 139° |
| 2026-05-03 21:34 | 20.47664 | -100.04471 | 10085 ft | 92 kts | 139° |
| 2026-05-03 21:34 | 20.47200 | -100.03976 | 10145 ft | 98 kts | 139° |
| 2026-05-03 21:34 | 20.46707 | -100.03454 | 10197 ft | 102 kts | 139° |
| 2026-05-03 21:35 | 20.46182 | -100.02913 | 10249 ft | 107 kts | 136° |
| 2026-05-03 21:35 | 20.45648 | -100.02340 | 10289 ft | 111 kts | 123° |
| 2026-05-03 21:35 | 20.45274 | -100.01609 | 10332 ft | 114 kts | 120° |
| 2026-05-03 21:35 | 20.44985 | -100.00815 | 10372 ft | 115 kts | 109° |
| 2026-05-03 21:36 | 20.44713 | -99.99999 | 10425 ft | 118 kts | 109° |
| 2026-05-03 21:36 | 20.44440 | -99.99172 | 10491 ft | 119 kts | 110° |
| 2026-05-03 21:36 | 20.44176 | -99.98336 | 10551 ft | 119 kts | 109° |
| 2026-05-03 21:36 | 20.43914 | -99.97496 | 10609 ft | 119 kts | 109° |
| 2026-05-03 21:37 | 20.43654 | -99.96667 | 10669 ft | 118 kts | 109° |
| 2026-05-03 21:37 | 20.43394 | -99.95839 | 10721 ft | 117 kts | 109° |
| 2026-05-03 21:37 | 20.43133 | -99.95021 | 10783 ft | 116 kts | 109° |
| 2026-05-03 21:37 | 20.43102 | -99.94178 | 10835 ft | 115 kts | 82° |
| 2026-05-03 21:38 | 20.42994 | -99.93352 | 10890 ft | 116 kts | 122° |
| 2026-05-03 21:38 | 20.42518 | -99.92668 | 10965 ft | 115 kts | 129° |
| 2026-05-03 21:38 | 20.42018 | -99.91994 | 11024 ft | 116 kts | 132° |
| 2026-05-03 21:38 | 20.41506 | -99.91325 | 11090 ft | 116 kts | 132° |
| 2026-05-03 21:39 | 20.40989 | -99.90655 | 11121 ft | 119 kts | 132° |
| 2026-05-03 21:39 | 20.40449 | -99.89961 | 11116 ft | 124 kts | 133° |
| 2026-05-03 21:39 | 20.39893 | -99.89249 | 11112 ft | 126 kts | 132° |
| 2026-05-03 21:39 | 20.39331 | -99.88526 | 11101 ft | 127 kts | 132° |
| 2026-05-03 21:40 | 20.38761 | -99.87794 | 11096 ft | 129 kts | 133° |
| 2026-05-03 21:40 | 20.38182 | -99.87054 | 11096 ft | 131 kts | 131° |
| 2026-05-03 21:40 | 20.37602 | -99.86310 | 11098 ft | 130 kts | 131° |
| 2026-05-03 21:40 | 20.37023 | -99.85569 | 11096 ft | 130 kts | 133° |
| 2026-05-03 21:41 | 20.36442 | -99.84826 | 11096 ft | 130 kts | 133° |
| 2026-05-03 21:41 | 20.35819 | -99.84129 | 11093 ft | 129 kts | 152° |
| 2026-05-03 21:41 | 20.35020 | -99.83699 | 11097 ft | 130 kts | 156° |
| 2026-05-03 21:41 | 20.34222 | -99.83252 | 11112 ft | 129 kts | 158° |
| 2026-05-03 21:42 | 20.33427 | -99.82811 | 11109 ft | 129 kts | 158° |
| 2026-05-03 21:42 | 20.32636 | -99.82371 | 11110 ft | 127 kts | 158° |
| 2026-05-03 21:42 | 20.31845 | -99.81933 | 11110 ft | 129 kts | 159° |
| 2026-05-03 21:42 | 20.31055 | -99.81494 | 11107 ft | 127 kts | 159° |
| 2026-05-03 21:43 | 20.30268 | -99.81057 | 11110 ft | 128 kts | 158° |
| 2026-05-03 21:43 | 20.29490 | -99.80626 | 11110 ft | 127 kts | 158° |
| 2026-05-03 21:43 | 20.28708 | -99.80191 | 11106 ft | 127 kts | 158° |
| 2026-05-03 21:43 | 20.27930 | -99.79760 | 11103 ft | 125 kts | 158° |
| 2026-05-03 21:44 | 20.27409 | -99.79471 | 11105 ft | 125 kts | 158° |
| 2026-05-03 21:44 | 20.26642 | -99.79046 | 11101 ft | 124 kts | 158° |
| 2026-05-03 21:44 | 20.25625 | -99.78483 | 11105 ft | 125 kts | 159° |
| 2026-05-03 21:44 | 20.25100 | -99.78192 | 11104 ft | 126 kts | 159° |
| 2026-05-03 21:45 | 20.24328 | -99.77762 | 11100 ft | 124 kts | 158° |
| 2026-05-03 21:45 | 20.23566 | -99.77340 | 11101 ft | 124 kts | 159° |
| 2026-05-03 21:45 | 20.22800 | -99.76916 | 11098 ft | 124 kts | 159° |
| 2026-05-03 21:45 | 20.22038 | -99.76493 | 11101 ft | 124 kts | 158° |
| 2026-05-03 21:46 | 20.21274 | -99.76071 | 11095 ft | 124 kts | 158° |
| 2026-05-03 21:46 | 20.20567 | -99.75545 | 11095 ft | 125 kts | 144° |
| 2026-05-03 21:46 | 20.19904 | -99.74961 | 11108 ft | 123 kts | 145° |
| 2026-05-03 21:46 | 20.19234 | -99.74377 | 11106 ft | 125 kts | 144° |
| 2026-05-03 21:47 | 20.18560 | -99.73789 | 11107 ft | 126 kts | 145° |
| 2026-05-03 21:47 | 20.17878 | -99.73194 | 11111 ft | 128 kts | 144° |
| 2026-05-03 21:47 | 20.17191 | -99.72593 | 11111 ft | 128 kts | 144° |
| 2026-05-03 21:47 | 20.16514 | -99.72002 | 11118 ft | 128 kts | 143° |
| 2026-05-03 21:48 | 20.15827 | -99.71403 | 11116 ft | 128 kts | 144° |
| 2026-05-03 21:48 | 20.15139 | -99.70803 | 11114 ft | 128 kts | 143° |
| 2026-05-03 21:48 | 20.14451 | -99.70202 | 11120 ft | 128 kts | 143° |
| 2026-05-03 21:48 | 20.13757 | -99.69599 | 11121 ft | 130 kts | 144° |
| 2026-05-03 21:49 | 20.13054 | -99.68986 | 11124 ft | 131 kts | 144° |
| 2026-05-03 21:49 | 20.12348 | -99.68371 | 11119 ft | 131 kts | 144° |
| 2026-05-03 21:49 | 20.11639 | -99.67752 | 11124 ft | 132 kts | 143° |
| 2026-05-03 21:49 | 20.10919 | -99.67126 | 11122 ft | 135 kts | 143° |
| 2026-05-03 21:50 | 20.10186 | -99.66487 | 11122 ft | 137 kts | 143° |
| 2026-05-03 21:50 | 20.09464 | -99.65858 | 11119 ft | 131 kts | 143° |
| 2026-05-03 21:50 | 20.08771 | -99.65253 | 11113 ft | 128 kts | 143° |
| 2026-05-03 21:50 | 20.08085 | -99.64656 | 11112 ft | 127 kts | 143° |
| 2026-05-03 21:51 | 20.07401 | -99.64061 | 11111 ft | 127 kts | 142° |
| 2026-05-03 21:51 | 20.06717 | -99.63465 | 11117 ft | 128 kts | 143° |
| 2026-05-03 21:51 | 20.06020 | -99.62861 | 11117 ft | 129 kts | 143° |
| 2026-05-03 21:51 | 20.05333 | -99.62260 | 11114 ft | 127 kts | 143° |
| 2026-05-03 21:52 | 20.04644 | -99.61662 | 11115 ft | 128 kts | 143° |
| 2026-05-03 21:52 | 20.03959 | -99.61064 | 11119 ft | 127 kts | 142° |
| 2026-05-03 21:52 | 20.03281 | -99.60475 | 11111 ft | 125 kts | 143° |
| 2026-05-03 21:52 | 20.02613 | -99.59893 | 11111 ft | 123 kts | 144° |
| 2026-05-03 21:53 | 20.01951 | -99.59319 | 11114 ft | 122 kts | 144° |
| 2026-05-03 21:53 | 20.01299 | -99.58751 | 11121 ft | 120 kts | 143° |
| 2026-05-03 21:53 | 20.00654 | -99.58189 | 11128 ft | 120 kts | 144° |
| 2026-05-03 21:53 | 20.00003 | -99.57624 | 11129 ft | 121 kts | 142° |
| 2026-05-03 21:54 | 19.99347 | -99.57055 | 11120 ft | 122 kts | 144° |
| 2026-05-03 21:54 | 19.98694 | -99.56485 | 11112 ft | 120 kts | 143° |
| 2026-05-03 21:54 | 19.98048 | -99.55925 | 11109 ft | 120 kts | 144° |
| 2026-05-03 21:54 | 19.97405 | -99.55364 | 11118 ft | 119 kts | 142° |
| 2026-05-03 21:55 | 19.96760 | -99.54805 | 11124 ft | 120 kts | 144° |
| 2026-05-03 21:55 | 19.96108 | -99.54239 | 11124 ft | 122 kts | 144° |
| 2026-05-03 21:55 | 19.95445 | -99.53662 | 11127 ft | 124 kts | 144° |
| 2026-05-03 21:55 | 19.94780 | -99.53082 | 11127 ft | 124 kts | 144° |
| 2026-05-03 21:56 | 19.94108 | -99.52500 | 11140 ft | 125 kts | 144° |
| 2026-05-03 21:56 | 19.93433 | -99.51913 | 11144 ft | 126 kts | 143° |
| 2026-05-03 21:56 | 19.92756 | -99.51323 | 11138 ft | 127 kts | 144° |
| 2026-05-03 21:56 | 19.92070 | -99.50729 | 11123 ft | 126 kts | 144° |
| 2026-05-03 21:57 | 19.91416 | -99.50160 | 11112 ft | 117 kts | 146° |
| 2026-05-03 21:57 | 19.91170 | -99.49943 | 11118 ft | 114 kts | 147° |
| 2026-05-03 21:57 | 19.90609 | -99.49455 | 11125 ft | 113 kts | 146° |
| 2026-05-03 21:57 | 19.90001 | -99.48929 | 11122 ft | 113 kts | 145° |
| 2026-05-03 21:58 | 19.89384 | -99.48396 | 11138 ft | 116 kts | 144° |
| 2026-05-03 21:58 | 19.88755 | -99.47852 | 11130 ft | 118 kts | 144° |
| 2026-05-03 21:58 | 19.88124 | -99.47303 | 11130 ft | 119 kts | 145° |
| 2026-05-03 21:58 | 19.87483 | -99.46747 | 11136 ft | 120 kts | 146° |
| 2026-05-03 21:59 | 19.86841 | -99.46189 | 11129 ft | 118 kts | 144° |
| 2026-05-03 21:59 | 19.86213 | -99.45642 | 11133 ft | 117 kts | 141° |
| 2026-05-03 21:59 | 19.85583 | -99.45096 | 11136 ft | 118 kts | 141° |
| 2026-05-03 21:59 | 19.84946 | -99.44544 | 11137 ft | 118 kts | 141° |
| 2026-05-03 22:00 | 19.84307 | -99.43991 | 11132 ft | 119 kts | 141° |
| 2026-05-03 22:00 | 19.83665 | -99.43434 | 11132 ft | 120 kts | 141° |
| 2026-05-03 22:00 | 19.83021 | -99.42875 | 11131 ft | 120 kts | 142° |
| 2026-05-03 22:00 | 19.82372 | -99.42313 | 11137 ft | 121 kts | 141° |
| 2026-05-03 22:01 | 19.81719 | -99.41746 | 11146 ft | 122 kts | 141° |
| 2026-05-03 22:01 | 19.81061 | -99.41176 | 11152 ft | 122 kts | 141° |
| 2026-05-03 22:01 | 19.80401 | -99.40603 | 11148 ft | 123 kts | 142° |
| 2026-05-03 22:01 | 19.79739 | -99.40031 | 11149 ft | 123 kts | 141° |
| 2026-05-03 22:02 | 19.79080 | -99.39458 | 11145 ft | 123 kts | 142° |
| 2026-05-03 22:02 | 19.78412 | -99.38881 | 11144 ft | 124 kts | 141° |
| 2026-05-03 22:02 | 19.77746 | -99.38302 | 11140 ft | 124 kts | 141° |
| 2026-05-03 22:02 | 19.77074 | -99.37721 | 11140 ft | 126 kts | 141° |
| 2026-05-03 22:03 | 19.76394 | -99.37132 | 11162 ft | 126 kts | 141° |
| 2026-05-03 22:03 | 19.75713 | -99.36542 | 11173 ft | 127 kts | 142° |
| 2026-05-03 22:03 | 19.75035 | -99.35955 | 11182 ft | 127 kts | 141° |
| 2026-05-03 22:03 | 19.74345 | -99.35357 | 11187 ft | 126 kts | 142° |
| 2026-05-03 22:04 | 19.73665 | -99.34768 | 11192 ft | 126 kts | 141° |
| 2026-05-03 22:04 | 19.72982 | -99.34177 | 11200 ft | 127 kts | 141° |
| 2026-05-03 22:04 | 19.72302 | -99.33588 | 11205 ft | 126 kts | 141° |
| 2026-05-03 22:04 | 19.71629 | -99.33005 | 11214 ft | 127 kts | 142° |
| 2026-05-03 22:05 | 19.70939 | -99.32410 | 11211 ft | 128 kts | 142° |
| 2026-05-03 22:05 | 19.70255 | -99.31816 | 11216 ft | 127 kts | 142° |
| 2026-05-03 22:05 | 19.69573 | -99.31226 | 11219 ft | 126 kts | 142° |
| 2026-05-03 22:05 | 19.68894 | -99.30639 | 11238 ft | 126 kts | 141° |
| 2026-05-03 22:06 | 19.68220 | -99.30056 | 11175 ft | 125 kts | 141° |
| 2026-05-03 22:06 | 19.67551 | -99.29478 | 11182 ft | 123 kts | 141° |
| 2026-05-03 22:06 | 19.66888 | -99.28904 | 11191 ft | 123 kts | 141° |
| 2026-05-03 22:06 | 19.66227 | -99.28332 | 11199 ft | 123 kts | 142° |
| 2026-05-03 22:07 | 19.65565 | -99.27759 | 11206 ft | 123 kts | 141° |
| 2026-05-03 22:07 | 19.64900 | -99.27184 | 11170 ft | 127 kts | 141° |
| 2026-05-03 22:07 | 19.64186 | -99.26570 | 11028 ft | 136 kts | 141° |
| 2026-05-03 22:07 | 19.63446 | -99.25929 | 10890 ft | 139 kts | 141° |
| 2026-05-03 22:08 | 19.62692 | -99.25277 | 10743 ft | 141 kts | 141° |
| 2026-05-03 22:08 | 19.61927 | -99.24617 | 10597 ft | 143 kts | 141° |
| 2026-05-03 22:08 | 19.61154 | -99.23948 | 10451 ft | 145 kts | 141° |
| 2026-05-03 22:08 | 19.60371 | -99.23272 | 10295 ft | 145 kts | 140° |
| 2026-05-03 22:09 | 19.59597 | -99.22604 | 10141 ft | 141 kts | 141° |
| 2026-05-03 22:09 | 19.58852 | -99.21959 | 9984 ft | 137 kts | 141° |
| 2026-05-03 22:09 | 19.58124 | -99.21332 | 9816 ft | 133 kts | 141° |
| 2026-05-03 22:10 | 19.56732 | -99.20129 | 9473 ft | 124 kts | 141° |
| 2026-05-03 22:10 | 19.56076 | -99.19561 | 9343 ft | 118 kts | 146° |
| 2026-05-03 22:10 | 19.55460 | -99.19029 | 9242 ft | 111 kts | 144° |
| 2026-05-03 22:10 | 19.54868 | -99.18519 | 9143 ft | 108 kts | 143° |
| 2026-05-03 22:11 | 19.54301 | -99.18031 | 9041 ft | 102 kts | 141° |
| 2026-05-03 22:11 | 19.53773 | -99.17574 | 8918 ft | 94 kts | 140° |
| 2026-05-03 22:11 | 19.53276 | -99.17143 | 8749 ft | 92 kts | 141° |
| 2026-05-03 22:11 | 19.52774 | -99.16714 | 8541 ft | 92 kts | 140° |
| 2026-05-03 22:12 | 19.52217 | -99.16420 | 8264 ft | 91 kts | 175° |
| 2026-05-03 22:12 | 19.51623 | -99.16306 | 8152 ft | 77 kts | 170° |
| 2026-05-03 22:12 | 19.51131 | -99.16195 | 8197 ft | 72 kts | 162° |
| 2026-05-03 22:12 | 19.50701 | -99.15872 | 8342 ft | 76 kts | 156° |
| 2026-05-03 22:13 | 19.50191 | -99.15550 | 8328 ft | 96 kts | 150° |
| 2026-05-03 22:13 | 19.49572 | -99.15153 | 8236 ft | 112 kts | 151° |
| 2026-05-03 22:13 | 19.48909 | -99.14714 | 8238 ft | 114 kts | 149° |
| 2026-05-03 22:13 | 19.48209 | -99.14255 | 8220 ft | 119 kts | 150° |
| 2026-05-03 22:14 | 19.47516 | -99.13778 | 8229 ft | 120 kts | 150° |
| 2026-05-03 22:14 | 19.46822 | -99.13288 | 8219 ft | 120 kts | 148° |
| 2026-05-03 22:14 | 19.46121 | -99.12811 | 8208 ft | 118 kts | 150° |
| 2026-05-03 22:14 | 19.45429 | -99.12343 | 8212 ft | 118 kts | 150° |
| 2026-05-03 22:15 | 19.44777 | -99.11895 | 8107 ft | 103 kts | 151° |
| 2026-05-03 22:15 | 19.44235 | -99.11491 | 7898 ft | 87 kts | 143° |
| 2026-05-03 22:15 | 19.43780 | -99.11120 | 7845 ft | 86 kts | 157° |
| 2026-05-03 22:15 | 19.43286 | -99.10806 | 7853 ft | 83 kts | 138° |
| 2026-05-03 22:16 | 19.42971 | -99.10324 | 7860 ft | 71 kts | 137° |
| 2026-05-03 22:16 | 19.42611 | -99.09978 | 7765 ft | 65 kts | 133° |
| 2026-05-03 22:16 | 19.42386 | -99.09562 | 7725 ft | 66 kts | 114° |
| 2026-05-03 22:16 | 19.42529 | -99.09027 | 7538 ft | 86 kts | 67° |
| 2026-05-03 22:17 | 19.42818 | -99.08448 | 7400 ft | 91 kts | 59° |
| 2026-05-03 22:17 | 19.43096 | -99.07881 | 7320 ft | 85 kts | 51° |
| 2026-05-03 22:17 | 19.43357 | -99.07407 | 7298 ft | 58 kts | 59° |
| 2026-05-03 22:17 | 19.43524 | -99.07104 | 7297 ft | 45 kts | 68° |
| 2026-05-03 22:18 | 19.43533 | -99.06937 | 7296 ft | 13 kts | 161° |
| 2026-05-03 22:18 | 19.43448 | -99.06869 | 7297 ft | 18 kts | 139° |
| 2026-05-03 22:18 | 19.43349 | -99.06775 | 7297 ft | 21 kts | 135° |
| 2026-05-03 22:18 | 19.43245 | -99.06695 | 7297 ft | 16 kts | 177° |
| 2026-05-03 22:19 | 19.43188 | -99.06677 | 7297 ft | 0 kts | 140° |